createdAt,value
2018-11-22T00:00:46.067Z,0
2018-11-22T00:01:46.367Z,0
2018-11-22T00:02:46.046Z,0
2018-11-22T00:03:46.052Z,0
2018-11-22T00:04:46.191Z,0
2018-11-22T00:05:46.025Z,0
2018-11-22T00:06:46.448Z,0
2018-11-22T00:07:46.067Z,0
2018-11-22T00:08:46.124Z,0
2018-11-22T00:09:46.018Z,0
2018-11-22T00:10:46.089Z,0
2018-11-22T00:11:46.040Z,0
2018-11-22T00:12:46.378Z,0
2018-11-22T00:13:46.084Z,0
2018-11-22T00:14:46.055Z,0
2018-11-22T00:15:46.122Z,0
2018-11-22T00:16:46.136Z,0
2018-11-22T00:17:46.083Z,0
2018-11-22T00:18:46.459Z,0
2018-11-22T00:19:46.381Z,0
2018-11-22T00:20:46.137Z,0
2018-11-22T00:21:46.103Z,0
2018-11-22T00:22:46.098Z,0
2018-11-22T00:23:47.854Z,0
2018-11-22T00:24:46.112Z,0
2018-11-22T00:25:46.429Z,0
2018-11-22T00:26:46.092Z,0
2018-11-22T00:34:12.155Z,0
2018-11-22T00:34:48.520Z,0
2018-11-22T00:35:48.639Z,0
2018-11-22T00:36:48.551Z,0
2018-11-22T00:37:48.488Z,0
2018-11-22T00:38:48.529Z,0
2018-11-22T00:39:48.798Z,0
2018-11-22T00:40:48.614Z,0
2018-11-22T00:41:48.391Z,0
2018-11-22T00:42:48.554Z,0
2018-11-22T00:43:48.532Z,0
2018-11-22T00:44:48.600Z,0
2018-11-22T00:45:48.846Z,0
2018-11-22T00:46:48.554Z,0
2018-11-22T00:47:48.518Z,0
2018-11-22T00:48:48.565Z,0
2018-11-22T00:49:48.696Z,0
2018-11-22T00:50:48.612Z,0
2018-11-22T00:51:48.898Z,0
2018-11-22T00:52:48.516Z,0
2018-11-22T00:53:48.555Z,0
2018-11-22T00:54:48.454Z,0
2018-11-22T00:55:48.581Z,0
2018-11-22T00:56:48.544Z,0
2018-11-22T00:57:48.933Z,0
2018-11-22T00:58:48.536Z,0
2018-11-22T00:59:48.635Z,0
2018-11-22T01:00:48.569Z,0
2018-11-22T01:01:48.484Z,0
2018-11-22T01:02:48.478Z,0
2018-11-22T01:03:48.875Z,0
2018-11-22T01:04:48.568Z,0
2018-11-22T01:05:48.468Z,0
2018-11-22T01:06:48.639Z,0
2018-11-22T01:07:48.511Z,0
2018-11-22T01:08:48.590Z,0
2018-11-22T01:09:49.915Z,0
2018-11-22T01:10:48.573Z,0
2018-11-22T01:11:48.487Z,0
2018-11-22T01:17:06.732Z,0
2018-11-22T01:17:18.851Z,0
2018-11-22T01:18:18.856Z,0
2018-11-22T01:19:18.829Z,0
2018-11-22T01:20:18.906Z,0
2018-11-22T01:21:18.838Z,0
2018-11-22T01:22:21.171Z,0
2018-11-22T01:23:18.790Z,0
2018-11-22T01:24:18.833Z,0
2018-11-22T01:25:18.832Z,0
2018-11-22T01:26:18.842Z,0
2018-11-22T01:27:18.847Z,0
2018-11-22T01:28:21.209Z,0
2018-11-22T01:29:18.828Z,0
2018-11-22T01:30:18.833Z,0
2018-11-22T01:31:18.842Z,0
2018-11-22T01:32:18.850Z,0
2018-11-22T01:33:18.886Z,0
2018-11-22T01:34:19.204Z,0
2018-11-22T01:35:19.143Z,0
2018-11-22T01:36:18.905Z,0
2018-11-22T01:37:18.881Z,0
2018-11-22T01:38:18.848Z,0
2018-11-22T01:39:18.925Z,0
2018-11-22T01:40:19.173Z,0
2018-11-22T01:41:18.866Z,0
2018-11-22T01:42:18.833Z,0
2018-11-22T01:43:18.853Z,0
2018-11-22T01:44:18.888Z,0
2018-11-22T01:45:18.855Z,0
2018-11-22T01:46:19.169Z,0
2018-11-22T01:47:19.153Z,0
2018-11-22T01:48:18.998Z,0
2018-11-22T01:49:18.857Z,0
2018-11-22T01:50:18.897Z,0
2018-11-22T01:51:18.975Z,0
2018-11-22T01:52:18.843Z,0
2018-11-22T01:53:19.121Z,0
2018-11-22T01:54:18.824Z,0
2018-11-22T01:55:18.928Z,0
2018-11-22T01:56:18.837Z,0
2018-11-22T01:57:18.850Z,0
2018-11-22T01:58:19.155Z,0
2018-11-22T01:59:18.872Z,0
2018-11-22T02:00:18.979Z,0
2018-11-22T02:01:18.867Z,0
2018-11-22T02:02:18.950Z,0
2018-11-22T02:03:18.922Z,0
2018-11-22T02:04:19.229Z,0
2018-11-22T02:05:18.894Z,0
2018-11-22T02:06:18.941Z,0
2018-11-22T02:07:18.852Z,0
2018-11-22T02:08:18.946Z,0
2018-11-22T02:09:18.887Z,0
2018-11-22T02:10:19.232Z,0
2018-11-22T02:11:18.927Z,0
2018-11-22T02:12:18.910Z,0
2018-11-22T02:13:18.913Z,0
2018-11-22T02:14:18.921Z,0
2018-11-22T02:15:18.891Z,0
2018-11-22T02:16:19.206Z,0
2018-11-22T02:28:10.360Z,0
2018-11-22T02:28:22.461Z,0
2018-11-22T02:29:22.520Z,0
2018-11-22T02:30:22.614Z,0
2018-11-22T02:31:22.481Z,0
2018-11-22T02:32:22.794Z,0
2018-11-22T02:33:22.441Z,0
2018-11-22T02:34:22.496Z,0
2018-11-22T02:35:22.442Z,0
2018-11-22T02:36:22.578Z,0
2018-11-22T02:37:22.450Z,0
2018-11-22T02:38:22.816Z,0
2018-11-22T02:39:22.442Z,0
2018-11-22T02:40:22.540Z,0
2018-11-22T02:41:22.442Z,0
2018-11-22T02:42:22.493Z,0
2018-11-22T02:43:22.524Z,0
2018-11-22T02:44:22.807Z,0
2018-11-22T02:45:22.506Z,0
2018-11-22T02:46:22.477Z,0
2018-11-22T02:47:22.478Z,0
2018-11-22T02:48:22.484Z,0
2018-11-22T02:49:22.466Z,0
2018-11-22T02:50:26.804Z,0
2018-11-22T02:51:22.442Z,0
2018-11-22T02:52:22.657Z,0
2018-11-22T02:53:22.458Z,0
2018-11-22T02:54:22.503Z,0
2018-11-22T02:55:22.530Z,0
2018-11-22T02:56:23.837Z,0
2018-11-22T02:57:22.521Z,0
2018-11-22T02:58:22.591Z,0
2018-11-22T02:59:22.529Z,0
2018-11-22T03:00:22.604Z,0
2018-11-22T03:01:22.508Z,0
2018-11-22T03:02:22.856Z,0
2018-11-22T03:03:22.827Z,0
2018-11-22T03:04:22.558Z,0
2018-11-22T03:05:22.566Z,0
2018-11-22T03:06:22.541Z,0
2018-11-22T03:07:22.508Z,0
2018-11-22T03:08:22.517Z,0
2018-11-22T03:09:22.874Z,0
2018-11-22T03:10:22.575Z,0
2018-11-22T03:11:22.575Z,0
2018-11-22T03:12:22.582Z,0
2018-11-22T03:13:22.558Z,0
2018-11-22T03:14:22.863Z,0
2018-11-22T03:15:22.606Z,0
2018-11-22T03:16:22.577Z,0
2018-11-22T03:17:22.544Z,0
2018-11-22T03:18:22.553Z,0
2018-11-22T03:19:22.558Z,0
2018-11-22T03:20:22.873Z,0
2018-11-22T03:21:22.878Z,0
2018-11-22T03:22:22.580Z,0
2018-11-22T03:23:22.585Z,0
2018-11-22T03:24:22.590Z,0
2018-11-22T03:25:22.673Z,0
2018-11-22T03:26:22.532Z,0
2018-11-22T03:27:22.891Z,0
2018-11-22T03:28:22.518Z,0
2018-11-22T03:29:22.658Z,0
2018-11-22T03:30:22.626Z,0
2018-11-22T03:31:22.568Z,0
2018-11-22T03:32:22.920Z,0
2018-11-22T03:33:22.893Z,0
2018-11-22T03:34:22.589Z,0
2018-11-22T03:35:22.633Z,0
2018-11-22T03:36:22.639Z,0
2018-11-22T03:37:22.576Z,0
2018-11-22T03:38:22.555Z,0
2018-11-22T03:39:22.895Z,0
2018-11-22T03:40:22.565Z,0
2018-11-22T03:41:22.547Z,0
2018-11-22T03:42:22.562Z,0
2018-11-22T03:43:22.582Z,0
2018-11-22T03:44:22.484Z,0
2018-11-22T03:45:22.861Z,0
2018-11-22T03:46:22.530Z,0
2018-11-22T03:47:22.567Z,0
2018-11-22T03:48:22.513Z,0
2018-11-22T03:49:22.560Z,0
2018-11-22T03:50:22.942Z,0
2018-11-22T03:51:22.844Z,0
2018-11-22T03:52:22.674Z,0
2018-11-22T03:53:22.492Z,0
2018-11-22T03:58:42.198Z,0
2018-11-22T03:58:54.257Z,0
2018-11-22T03:59:54.258Z,0
2018-11-22T04:00:54.265Z,0
2018-11-22T04:01:54.261Z,0
2018-11-22T04:02:54.177Z,0
2018-11-22T04:04:54.234Z,0
2018-11-22T04:05:54.204Z,0
2018-11-22T04:07:29.003Z,0
2018-11-22T04:07:55.732Z,0
2018-11-22T04:08:54.260Z,0
2018-11-22T04:09:55.632Z,0
2018-11-22T04:10:54.333Z,0
2018-11-22T04:11:54.306Z,0
2018-11-22T04:12:54.323Z,0
2018-11-22T04:18:11.612Z,0
2018-11-22T04:18:23.693Z,0
2018-11-22T04:19:23.723Z,0
2018-11-22T04:20:23.650Z,0
2018-11-22T04:21:23.652Z,0
2018-11-22T04:22:23.695Z,0
2018-11-22T04:23:24.004Z,0
2018-11-22T04:24:23.734Z,0
2018-11-22T04:25:23.698Z,0
2018-11-22T04:26:24.974Z,0
2018-11-22T04:27:24.286Z,0
2018-11-22T04:28:23.707Z,0
2018-11-22T04:29:24.172Z,0
2018-11-22T04:30:23.680Z,0
2018-11-22T04:31:23.677Z,0
2018-11-22T04:32:23.724Z,0
2018-11-22T04:33:23.703Z,0
2018-11-22T04:34:23.697Z,0
2018-11-22T04:35:24.073Z,0
2018-11-22T04:36:23.991Z,0
2018-11-22T04:37:23.717Z,0
2018-11-22T04:38:23.723Z,0
2018-11-22T04:39:23.732Z,0
2018-11-22T04:40:23.686Z,0
2018-11-22T04:41:23.772Z,0
2018-11-22T04:42:24.160Z,0
2018-11-22T04:43:23.768Z,0
2018-11-22T04:44:23.809Z,0
2018-11-22T04:45:23.811Z,0
2018-11-22T04:46:23.713Z,0
2018-11-22T04:47:23.754Z,0
2018-11-22T04:48:24.111Z,0
2018-11-22T04:49:23.723Z,0
2018-11-22T04:50:23.776Z,0
2018-11-22T04:51:23.781Z,0
2018-11-22T04:52:23.753Z,0
2018-11-22T04:53:24.068Z,0
2018-11-22T04:54:24.063Z,0
2018-11-22T04:55:23.774Z,0
2018-11-22T04:56:23.812Z,0
2018-11-22T04:57:23.713Z,0
2018-11-22T04:58:23.723Z,0
2018-11-22T04:59:23.800Z,0
2018-11-22T05:00:24.112Z,0
2018-11-22T05:01:23.774Z,0
2018-11-22T05:02:23.781Z,0
2018-11-22T05:03:23.811Z,0
2018-11-22T05:04:24.546Z,0
2018-11-22T05:05:23.814Z,0
2018-11-22T05:06:24.054Z,0
2018-11-22T05:07:23.814Z,0
2018-11-22T05:08:23.792Z,0
2018-11-22T05:09:23.867Z,0
2018-11-22T05:10:23.844Z,0
2018-11-22T05:11:23.741Z,0
2018-11-22T05:12:24.092Z,0
2018-11-22T05:13:23.822Z,0
2018-11-22T05:14:23.810Z,0
2018-11-22T05:15:23.793Z,0
2018-11-22T05:16:23.811Z,0
2018-11-22T05:17:26.718Z,0
2018-11-22T05:18:24.138Z,0
2018-11-22T05:19:23.738Z,0
2018-11-22T05:20:23.798Z,0
2018-11-22T05:21:23.844Z,0
2018-11-22T05:22:23.756Z,0
2018-11-22T05:23:24.126Z,0
2018-11-22T05:24:24.100Z,0
2018-11-22T05:25:23.810Z,0
2018-11-22T05:26:23.837Z,0
2018-11-22T05:27:23.883Z,0
2018-11-22T05:28:23.910Z,0
2018-11-22T05:29:23.753Z,0
2018-11-22T05:30:24.085Z,0
2018-11-22T05:31:23.773Z,0
2018-11-22T05:32:23.948Z,0
2018-11-22T05:33:23.821Z,0
2018-11-22T05:34:23.828Z,0
2018-11-22T05:35:23.763Z,0
2018-11-22T05:36:24.046Z,0
2018-11-22T05:37:23.849Z,0
2018-11-22T05:38:23.792Z,0
2018-11-22T05:39:23.820Z,0
2018-11-22T05:40:23.824Z,0
2018-11-22T05:41:23.905Z,0
2018-11-22T05:42:24.113Z,0
2018-11-22T05:49:51.768Z,0
2018-11-22T05:50:03.866Z,0
2018-11-22T05:51:03.839Z,0
2018-11-22T05:53:08.419Z,0
2018-11-22T05:53:20.523Z,0
2018-11-22T05:54:20.478Z,0
2018-11-22T05:55:20.914Z,0
2018-11-22T05:56:20.557Z,0
2018-11-22T05:57:20.558Z,0
2018-11-22T05:58:20.575Z,0
2018-11-22T05:59:20.511Z,0
2018-11-22T06:00:20.585Z,0
2018-11-22T06:01:23.124Z,0
2018-11-22T06:02:20.693Z,0
2018-11-22T06:03:20.606Z,0
2018-11-22T06:04:20.518Z,0
2018-11-22T06:05:20.552Z,0
2018-11-22T06:06:20.520Z,0
2018-11-22T06:07:20.872Z,0
2018-11-22T06:08:20.674Z,0
2018-11-22T06:09:20.541Z,0
2018-11-22T06:10:20.514Z,0
2018-11-22T06:11:20.556Z,0
2018-11-22T06:12:20.596Z,0
2018-11-22T06:13:23.069Z,0
2018-11-22T06:14:20.574Z,0
2018-11-22T06:15:20.514Z,0
2018-11-22T06:16:20.623Z,0
2018-11-22T06:17:20.528Z,0
2018-11-22T06:18:21.342Z,0
2018-11-22T06:19:20.950Z,0
2018-11-22T06:20:20.518Z,0
2018-11-22T06:21:20.499Z,0
2018-11-22T06:22:20.527Z,0
2018-11-22T06:23:21.211Z,0
2018-11-22T06:24:20.630Z,0
2018-11-22T06:25:21.604Z,0
2018-11-22T06:26:20.515Z,0
2018-11-22T06:27:20.592Z,0
2018-11-22T06:28:20.809Z,4
2018-11-22T06:29:20.596Z,4
2018-11-22T06:30:21.329Z,4
2018-11-22T06:31:20.915Z,0
2018-11-22T06:32:20.591Z,0
2018-11-22T06:33:23.567Z,0
2018-11-22T06:34:20.556Z,0
2018-11-22T06:35:20.566Z,0
2018-11-22T06:36:20.619Z,0
2018-11-22T06:37:20.966Z,0
2018-11-22T06:38:20.633Z,4
2018-11-22T06:39:20.610Z,4
2018-11-22T06:40:20.543Z,4
2018-11-22T06:41:20.583Z,4
2018-11-22T06:42:20.620Z,0
2018-11-22T06:43:20.967Z,0
2018-11-22T06:44:20.525Z,4
2018-11-22T06:45:20.505Z,4
2018-11-22T06:46:20.490Z,4
2018-11-22T06:47:20.496Z,4
2018-11-22T06:48:20.629Z,4
2018-11-22T06:49:20.962Z,4
2018-11-22T06:50:20.471Z,4
2018-11-22T06:51:20.475Z,4
2018-11-22T06:52:20.543Z,4
2018-11-22T06:53:20.611Z,8
2018-11-22T06:54:20.567Z,4
2018-11-22T06:55:20.901Z,4
2018-11-22T07:00:38.183Z,8
2018-11-22T07:00:50.198Z,8
2018-11-22T07:01:50.145Z,8
2018-11-22T07:02:50.141Z,8
2018-11-22T07:03:50.161Z,8
2018-11-22T07:04:50.255Z,8
2018-11-22T07:05:50.266Z,8
2018-11-22T07:06:50.649Z,12
2018-11-22T07:07:50.314Z,8
2018-11-22T07:08:50.288Z,8
2018-11-22T07:09:50.324Z,12
2018-11-22T07:10:50.333Z,12
2018-11-22T07:11:50.346Z,12
2018-11-22T07:12:50.657Z,12
2018-11-22T07:13:50.324Z,12
2018-11-22T07:14:50.291Z,12
2018-11-22T07:15:50.313Z,12
2018-11-22T07:16:50.240Z,16
2018-11-22T07:17:50.312Z,12
2018-11-22T07:18:50.625Z,16
2018-11-22T07:19:50.290Z,16
2018-11-22T07:20:50.331Z,16
2018-11-22T07:21:50.338Z,12
2018-11-22T07:24:10.248Z,16
2018-11-22T07:25:09.916Z,16
2018-11-22T07:26:09.956Z,20
2018-11-22T07:27:09.826Z,16
2018-11-22T07:28:09.935Z,20
2018-11-22T07:29:09.871Z,16
2018-11-22T07:30:10.011Z,20
2018-11-22T07:31:10.161Z,20
2018-11-22T07:32:09.962Z,24
2018-11-22T07:33:09.868Z,20
2018-11-22T07:34:09.908Z,20
2018-11-22T07:35:09.883Z,24
2018-11-22T07:36:09.919Z,24
2018-11-22T07:37:12.151Z,24
2018-11-22T07:38:10.035Z,24
2018-11-22T07:39:13.734Z,24
2018-11-22T07:40:10.287Z,24
2018-11-22T07:41:25.592Z,24
2018-11-22T07:42:09.895Z,24
2018-11-22T07:43:10.316Z,24
2018-11-22T07:44:09.971Z,24
2018-11-22T07:45:09.977Z,28
2018-11-22T07:46:09.951Z,32
2018-11-22T07:47:09.990Z,28
2018-11-22T07:49:14.438Z,28
2018-11-22T07:49:26.564Z,28
2018-11-22T07:50:26.568Z,28
2018-11-22T07:51:26.573Z,28
2018-11-22T07:54:33.999Z,28
2018-11-22T07:54:46.393Z,28
2018-11-22T07:55:46.123Z,28
2018-11-22T07:56:46.165Z,28
2018-11-22T07:57:46.069Z,28
2018-11-22T07:58:46.108Z,28
2018-11-22T07:59:46.084Z,28
2018-11-22T08:00:46.465Z,32
2018-11-22T08:01:46.206Z,32
2018-11-22T08:02:46.208Z,32
2018-11-22T08:03:46.143Z,36
2018-11-22T08:04:46.121Z,32
2018-11-22T08:05:46.188Z,36
2018-11-22T08:06:46.438Z,36
2018-11-22T08:07:46.707Z,36
2018-11-22T08:08:46.144Z,36
2018-11-22T08:09:46.151Z,36
2018-11-22T08:10:46.158Z,40
2018-11-22T08:11:46.125Z,44
2018-11-22T08:12:46.667Z,44
2018-11-22T08:13:46.141Z,48
2018-11-22T08:14:46.216Z,48
2018-11-22T08:15:46.189Z,48
2018-11-22T08:16:46.125Z,44
2018-11-22T08:17:46.268Z,44
2018-11-22T08:18:46.478Z,44
2018-11-22T08:19:46.116Z,44
2018-11-22T08:20:46.157Z,48
2018-11-22T08:21:46.231Z,48
2018-11-22T08:22:46.172Z,48
2018-11-22T08:23:46.718Z,48
2018-11-22T08:24:46.460Z,48
2018-11-22T08:25:46.159Z,48
2018-11-22T08:26:46.163Z,48
2018-11-22T08:27:46.168Z,52
2018-11-22T08:28:46.176Z,52
2018-11-22T08:29:46.185Z,52
2018-11-22T08:30:46.425Z,52
2018-11-22T08:31:46.160Z,52
2018-11-22T08:32:46.729Z,56
2018-11-22T08:33:46.444Z,56
2018-11-22T08:34:46.215Z,60
2018-11-22T08:35:46.188Z,60
2018-11-22T08:36:46.496Z,60
2018-11-22T08:37:46.240Z,64
2018-11-22T08:38:46.174Z,60
2018-11-22T08:39:46.178Z,60
2018-11-22T08:40:46.187Z,64
2018-11-22T08:42:46.479Z,60
2018-11-22T08:43:46.181Z,64
2018-11-22T08:44:46.242Z,64
2018-11-22T08:45:46.188Z,68
2018-11-22T08:46:46.194Z,68
2018-11-22T08:47:46.236Z,68
2018-11-22T08:48:46.546Z,72
2018-11-22T08:49:46.175Z,76
2018-11-22T08:50:46.182Z,76
2018-11-22T08:51:46.228Z,76
2018-11-22T08:52:46.233Z,80
2018-11-22T08:53:46.345Z,76
2018-11-22T08:54:46.517Z,80
2018-11-22T08:55:46.215Z,76
2018-11-22T08:56:46.221Z,80
2018-11-22T08:57:46.199Z,76
2018-11-22T08:58:46.171Z,76
2018-11-22T08:59:46.213Z,76
2018-11-22T09:00:46.701Z,76
2018-11-22T09:01:46.255Z,76
2018-11-22T09:02:46.332Z,72
2018-11-22T09:03:46.218Z,76
2018-11-22T09:04:46.173Z,76
2018-11-22T09:05:46.152Z,76
2018-11-22T09:06:46.534Z,76
2018-11-22T09:07:46.193Z,76
2018-11-22T09:08:46.203Z,76
2018-11-22T09:09:46.177Z,72
2018-11-22T09:10:46.184Z,76
2018-11-22T09:11:46.220Z,72
2018-11-22T09:12:46.944Z,72
2018-11-22T09:13:46.274Z,72
2018-11-22T09:14:46.445Z,76
2018-11-22T09:15:46.249Z,76
2018-11-22T09:16:46.220Z,76
2018-11-22T09:17:48.584Z,72
2018-11-22T09:18:46.663Z,80
2018-11-22T09:19:47.167Z,84
2018-11-22T09:20:46.320Z,88
2018-11-22T09:21:46.532Z,84
2018-11-22T09:22:46.197Z,84
2018-11-22T09:23:47.160Z,84
2018-11-22T09:24:46.312Z,88
2018-11-22T09:25:47.012Z,92
2018-11-22T09:26:46.257Z,92
2018-11-22T09:27:46.610Z,92
2018-11-22T09:28:46.270Z,96
2018-11-22T09:29:48.187Z,96
2018-11-22T09:30:46.249Z,96
2018-11-22T09:31:46.292Z,96
2018-11-22T09:32:48.308Z,96
2018-11-22T09:34:46.276Z,92
2018-11-22T09:35:46.248Z,88
2018-11-22T09:36:46.235Z,88
2018-11-22T09:37:46.231Z,88
2018-11-22T09:38:46.236Z,88
2018-11-22T09:39:46.579Z,88
2018-11-22T09:40:46.249Z,96
2018-11-22T09:41:46.256Z,96
2018-11-22T09:42:46.260Z,96
2018-11-22T09:43:46.272Z,96
2018-11-22T09:44:46.275Z,100
2018-11-22T09:45:46.589Z,104
2018-11-22T09:46:46.251Z,104
2018-11-22T09:47:47.154Z,104
2018-11-22T09:48:46.629Z,104
2018-11-22T09:49:46.308Z,100
2018-11-22T09:50:47.722Z,96
2018-11-22T09:51:46.731Z,96
2018-11-22T09:52:46.291Z,100
2018-11-22T09:53:46.334Z,104
2018-11-22T09:54:46.308Z,108
2018-11-22T09:55:46.292Z,100
2018-11-22T09:56:46.333Z,100
2018-11-22T09:57:46.632Z,96
2018-11-22T09:58:46.265Z,100
2018-11-22T10:06:14.041Z,100
2018-11-22T10:06:26.493Z,100
2018-11-22T10:07:26.501Z,96
2018-11-22T10:08:26.674Z,100
2018-11-22T10:09:27.021Z,100
2018-11-22T10:10:26.411Z,104
2018-11-22T10:11:26.857Z,112
2018-11-22T10:12:26.674Z,116
2018-11-22T10:13:26.531Z,120
2018-11-22T10:14:26.450Z,124
2018-11-22T10:15:26.551Z,120
2018-11-22T10:16:26.518Z,120
2018-11-22T10:17:28.401Z,124
2018-11-22T10:18:26.540Z,120
2018-11-22T10:19:26.471Z,116
2018-11-22T10:20:26.511Z,116
2018-11-22T10:21:26.481Z,112
2018-11-22T10:22:26.601Z,108
2018-11-22T10:23:26.736Z,108
2018-11-22T10:24:26.990Z,108
2018-11-22T10:25:26.481Z,108
2018-11-22T10:26:26.789Z,112
2018-11-22T10:27:26.522Z,112
2018-11-22T10:28:26.671Z,116
2018-11-22T10:29:27.159Z,116
2018-11-22T10:30:26.913Z,120
2018-11-22T10:31:26.555Z,116
2018-11-22T10:32:26.485Z,116
2018-11-22T10:33:26.494Z,112
2018-11-22T10:34:26.537Z,112
2018-11-22T10:35:27.215Z,112
2018-11-22T10:36:26.478Z,112
2018-11-22T10:37:26.451Z,108
2018-11-22T10:38:26.926Z,120
2018-11-22T10:39:24.967Z,124
2018-11-22T10:40:26.503Z,124
2018-11-22T10:41:26.815Z,124
2018-11-22T10:42:26.589Z,124
2018-11-22T10:43:26.495Z,120
2018-11-22T10:44:26.529Z,112
2018-11-22T10:45:26.534Z,104
2018-11-22T10:46:26.512Z,112
2018-11-22T10:47:26.836Z,124
2018-11-22T10:48:26.524Z,124
2018-11-22T10:49:26.531Z,124
2018-11-22T10:50:27.025Z,120
2018-11-22T10:51:26.508Z,116
2018-11-22T10:52:26.554Z,116
2018-11-22T10:53:26.967Z,124
2018-11-22T10:54:26.516Z,132
2018-11-22T10:55:26.505Z,136
2018-11-22T10:56:26.576Z,140
2018-11-22T10:57:26.594Z,144
2018-11-22T10:58:26.494Z,140
2018-11-22T10:59:26.814Z,132
2018-11-22T11:00:26.533Z,128
2018-11-22T11:01:26.509Z,128
2018-11-22T11:02:27.775Z,128
2018-11-22T11:03:26.623Z,128
2018-11-22T11:04:26.601Z,136
2018-11-22T11:05:26.543Z,132
2018-11-22T11:06:26.546Z,132
2018-11-22T11:07:27.207Z,136
2018-11-22T11:08:26.762Z,140
2018-11-22T11:09:26.561Z,140
2018-11-22T11:10:26.496Z,140
2018-11-22T11:11:26.799Z,144
2018-11-22T11:12:31.228Z,144
2018-11-22T11:13:26.548Z,148
2018-11-22T11:14:26.524Z,148
2018-11-22T11:15:26.635Z,148
2018-11-22T11:16:26.539Z,152
2018-11-22T11:17:26.819Z,156
2018-11-22T11:18:26.535Z,160
2018-11-22T11:19:26.563Z,160
2018-11-22T11:20:26.531Z,156
2018-11-22T11:21:26.536Z,156
2018-11-22T11:22:26.576Z,152
2018-11-22T11:23:26.903Z,148
2018-11-22T11:24:27.612Z,140
2018-11-22T11:25:26.535Z,148
2018-11-22T11:26:26.808Z,148
2018-11-22T11:27:26.581Z,156
2018-11-22T11:28:26.544Z,156
2018-11-22T11:29:26.865Z,152
2018-11-22T11:30:26.529Z,144
2018-11-22T11:31:26.564Z,144
2018-11-22T11:32:26.547Z,144
2018-11-22T11:33:26.479Z,144
2018-11-22T11:34:26.525Z,144
2018-11-22T11:35:26.867Z,152
2018-11-22T11:36:26.637Z,152
2018-11-22T11:37:26.531Z,148
2018-11-22T11:38:26.554Z,140
2018-11-22T11:39:26.553Z,136
2018-11-22T11:40:26.561Z,136
2018-11-22T11:41:26.836Z,136
2018-11-22T11:42:26.572Z,136
2018-11-22T11:43:26.539Z,136
2018-11-22T11:44:26.619Z,136
2018-11-22T11:45:26.604Z,136
2018-11-22T11:46:26.564Z,136
2018-11-22T11:47:26.875Z,136
2018-11-22T11:48:26.553Z,132
2018-11-22T11:49:26.889Z,128
2018-11-22T11:50:26.628Z,124
2018-11-22T11:51:26.636Z,124
2018-11-22T11:52:26.573Z,120
2018-11-22T11:53:46.718Z,120
2018-11-22T11:54:26.552Z,124
2018-11-22T11:55:26.867Z,120
2018-11-22T11:56:26.700Z,120
2018-11-22T11:57:26.602Z,116
2018-11-22T11:58:26.710Z,116
2018-11-22T12:00:31.086Z,124
2018-11-22T12:00:43.240Z,120
2018-11-22T12:01:44.927Z,120
2018-11-22T12:02:43.941Z,112
2018-11-22T12:03:43.262Z,108
2018-11-22T12:04:43.474Z,104
2018-11-22T12:05:43.140Z,104
2018-11-22T12:06:43.152Z,104
2018-11-22T12:07:43.226Z,112
2018-11-22T12:08:43.231Z,112
2018-11-22T12:09:43.200Z,116
2018-11-22T12:10:43.495Z,116
2018-11-22T12:11:43.190Z,116
2018-11-22T12:12:43.188Z,116
2018-11-22T12:15:52.833Z,120
2018-11-22T12:16:55.423Z,116
2018-11-22T12:17:55.068Z,120
2018-11-22T12:18:55.035Z,116
2018-11-22T12:19:56.068Z,116
2018-11-22T12:20:55.036Z,116
2018-11-22T12:21:55.057Z,112
2018-11-22T12:22:55.339Z,108
2018-11-22T12:23:55.037Z,112
2018-11-22T12:24:55.114Z,116
2018-11-22T12:25:55.157Z,116
2018-11-22T12:26:55.092Z,112
2018-11-22T12:27:55.135Z,112
2018-11-22T12:28:55.423Z,108
2018-11-22T12:29:55.113Z,108
2018-11-22T12:30:55.116Z,108
2018-11-22T12:31:56.218Z,104
2018-11-22T12:32:55.068Z,104
2018-11-22T12:33:55.075Z,104
2018-11-22T12:34:55.451Z,104
2018-11-22T12:35:55.086Z,104
2018-11-22T12:36:55.194Z,104
2018-11-22T12:37:55.101Z,104
2018-11-22T12:38:55.138Z,100
2018-11-22T12:39:55.041Z,92
2018-11-22T12:40:55.488Z,92
2018-11-22T12:41:55.129Z,88
2018-11-22T12:42:55.133Z,84
2018-11-22T12:43:55.250Z,88
2018-11-22T12:44:55.073Z,88
2018-11-22T12:45:55.084Z,92
2018-11-22T12:46:56.129Z,96
2018-11-22T12:47:55.356Z,96
2018-11-22T12:48:55.100Z,100
2018-11-22T12:49:55.075Z,104
2018-11-22T12:50:55.088Z,100
2018-11-22T12:51:55.088Z,104
2018-11-22T12:52:55.364Z,104
2018-11-22T12:53:55.101Z,100
2018-11-22T12:54:55.073Z,100
2018-11-22T12:55:55.077Z,100
2018-11-22T12:56:55.458Z,96
2018-11-22T12:57:55.167Z,96
2018-11-22T12:58:55.269Z,92
2018-11-22T12:59:55.142Z,84
2018-11-22T13:00:55.148Z,84
2018-11-22T13:01:55.154Z,76
2018-11-22T13:02:55.406Z,76
2018-11-22T13:03:55.129Z,72
2018-11-22T13:04:55.139Z,72
2018-11-22T13:05:55.128Z,68
2018-11-22T13:06:55.392Z,68
2018-11-22T13:07:55.140Z,64
2018-11-22T13:08:55.472Z,64
2018-11-22T13:09:55.136Z,68
2018-11-22T13:10:55.143Z,68
2018-11-22T13:11:56.246Z,68
2018-11-22T13:12:55.127Z,68
2018-11-22T13:13:55.131Z,68
2018-11-22T13:14:55.410Z,68
2018-11-22T13:15:55.073Z,68
2018-11-22T13:16:55.081Z,72
2018-11-22T13:17:55.202Z,72
2018-11-22T13:18:59.317Z,76
2018-11-22T13:19:55.136Z,76
2018-11-22T13:20:55.447Z,80
2018-11-22T13:21:55.118Z,76
2018-11-22T13:22:55.157Z,80
2018-11-22T13:23:55.162Z,84
2018-11-22T13:24:55.141Z,80
2018-11-22T13:25:55.107Z,84
2018-11-22T13:26:56.105Z,84
2018-11-22T13:27:55.158Z,80
2018-11-22T13:28:55.159Z,76
2018-11-22T13:29:55.135Z,80
2018-11-22T13:30:55.177Z,80
2018-11-22T13:31:55.148Z,76
2018-11-22T13:32:55.424Z,76
2018-11-22T13:33:55.192Z,76
2018-11-22T13:34:55.661Z,76
2018-11-22T13:35:55.136Z,80
2018-11-22T13:36:55.125Z,76
2018-11-22T13:37:55.157Z,76
2018-11-22T13:38:55.461Z,80
2018-11-22T13:39:55.163Z,80
2018-11-22T13:40:55.135Z,80
2018-11-22T13:41:55.155Z,84
2018-11-22T13:42:55.118Z,88
2018-11-22T13:43:55.138Z,84
2018-11-22T13:44:55.477Z,80
2018-11-22T13:45:55.250Z,76
2018-11-22T13:46:55.307Z,76
2018-11-22T13:47:55.259Z,76
2018-11-22T13:48:55.157Z,72
2018-11-22T13:49:55.164Z,72
2018-11-22T13:51:01.725Z,64
2018-11-22T13:51:55.348Z,68
2018-11-22T13:52:55.219Z,56
2018-11-22T13:53:55.193Z,60
2018-11-22T13:54:55.126Z,64
2018-11-22T13:55:55.164Z,64
2018-11-22T13:56:55.446Z,68
2018-11-22T13:57:55.216Z,64
2018-11-22T13:58:55.187Z,64
2018-11-22T14:00:01.101Z,68
2018-11-22T14:00:55.150Z,64
2018-11-22T14:01:55.151Z,56
2018-11-22T14:02:55.518Z,52
2018-11-22T14:03:55.136Z,52
2018-11-22T14:04:55.194Z,56
2018-11-22T14:05:55.387Z,56
2018-11-22T14:06:55.141Z,56
2018-11-22T14:07:55.183Z,56
2018-11-22T14:08:55.494Z,56
2018-11-22T14:09:55.229Z,56
2018-11-22T14:11:01.070Z,56
2018-11-22T14:11:55.240Z,52
2018-11-22T14:12:55.215Z,48
2018-11-22T14:13:55.152Z,48
2018-11-22T14:14:55.468Z,40
2018-11-22T14:15:55.474Z,40
2018-11-22T14:16:55.200Z,40
2018-11-22T14:17:55.145Z,36
2018-11-22T14:18:55.212Z,36
2018-11-22T14:22:03.100Z,36
2018-11-22T14:22:15.446Z,32
2018-11-22T14:23:30.205Z,28
2018-11-22T14:24:15.329Z,28
2018-11-22T14:25:15.535Z,24
2018-11-22T14:26:15.371Z,24
2018-11-22T14:27:15.695Z,24
2018-11-22T14:28:15.383Z,24
2018-11-22T14:29:15.313Z,24
2018-11-22T14:30:15.451Z,28
2018-11-22T14:31:15.300Z,24
2018-11-22T14:32:15.459Z,24
2018-11-22T14:33:15.725Z,24
2018-11-22T14:34:15.392Z,24
2018-11-22T14:35:15.326Z,24
2018-11-22T14:36:15.916Z,24
2018-11-22T14:37:15.270Z,20
2018-11-22T14:38:15.347Z,16
2018-11-22T14:39:15.661Z,16
2018-11-22T14:40:15.494Z,16
2018-11-22T14:41:15.410Z,20
2018-11-22T14:42:15.521Z,16
2018-11-22T14:43:15.343Z,16
2018-11-22T14:44:15.520Z,16
2018-11-22T14:45:15.735Z,16
2018-11-22T14:46:15.431Z,16
2018-11-22T14:47:15.338Z,12
2018-11-22T14:48:15.473Z,16
2018-11-22T14:49:15.506Z,12
2018-11-22T14:50:15.426Z,12
2018-11-22T14:51:16.662Z,12
2018-11-22T14:52:15.506Z,8
2018-11-22T14:53:15.345Z,12
2018-11-22T14:54:15.455Z,12
2018-11-22T14:55:15.286Z,12
2018-11-22T14:56:15.297Z,12
2018-11-22T14:57:15.799Z,8
2018-11-22T14:58:29.335Z,8
2018-11-22T14:59:15.344Z,8
2018-11-22T15:00:15.398Z,8
2018-11-22T15:01:15.709Z,8
2018-11-22T15:02:15.363Z,8
2018-11-22T15:03:15.825Z,12
2018-11-22T15:04:15.485Z,8
2018-11-22T15:05:15.322Z,8
2018-11-22T15:06:15.461Z,8
2018-11-22T15:07:15.335Z,8
2018-11-22T15:08:15.406Z,8
2018-11-22T15:09:15.655Z,4
2018-11-22T15:10:15.387Z,8
2018-11-22T15:11:15.361Z,4
2018-11-22T15:12:15.332Z,4
2018-11-22T15:13:15.407Z,4
2018-11-22T15:14:15.381Z,8
2018-11-22T15:15:15.728Z,4
2018-11-22T15:16:15.359Z,4